Apodaca, New Mexico
Current Conditions -  °F | °C
As of 12:15 PM on Thursday 27 Nov 2014 (Local Time) from KSKX Reporting Station
Clear Clear  
Wind Chill: 48°   Ceiling: Unl
Heat Index: 48°   Visibility: 10mi
Dew Point: 21°   Wind: 3mph
Humidity: 34%   Direction: 340°NNW
Pressure: 30.43"   Gusts: NA
Location:  36.1644°N, 105.863°W
Report Text: KSKX 271915Z AUTO 34003KT 10SM CLR 09/M06 A3043 RMK AO1
Loading
Personal Weather Stations






























Interactive Weather Map New forecast layout! Learn more

10-Day Weather Forecast

Advertisements
Track Severe Weather on mobile